Etihad Airways Virtual Airport Information Service

Phuket International Airport

ICAO: VTSP Country: Thailand
Latitude: 8.1132 Longitude: 98.3169
Latest Arrival : ETD430 (OMAA-VTSP) Latest Departure : ETD431 (VTSP-OMAA)


WX CaptureLIVE
Data provided by noaa.gov | Recorded at 03:35:31

METAR : VTSP 190300Z 08017KT 060V120 9999 FEW020 30/20 Q1015 NOSIG

TAF :


Runway Data for VTSP
Data provided by openaviationdata.com

Runway ID Mag Var Hdg Length Elevation Surface ILS Freq ILS Id ILS Slope

Phuket International Airport, Thailand
Use only for reference purposes